createdAt,value
2022-12-06T00:02:25.361Z,-0.54
2022-12-06T00:04:53.210Z,-0.54
2022-12-06T00:07:20.557Z,-0.49
2022-12-06T00:09:47.706Z,-0.51
2022-12-06T00:12:17.736Z,-0.56
2022-12-06T00:14:45.480Z,-0.58
2022-12-06T00:17:14.233Z,-0.58
2022-12-06T00:19:41.357Z,-0.61
2022-12-06T00:22:10.809Z,-0.58
2022-12-06T00:24:37.926Z,-0.57
2022-12-06T00:27:04.865Z,-0.54
2022-12-06T00:29:33.618Z,-0.55
2022-12-06T00:32:01.111Z,-0.55
2022-12-06T00:34:32.716Z,-0.57
2022-12-06T00:37:00.637Z,-0.59
2022-12-06T00:39:31.108Z,-0.58
2022-12-06T00:42:00.001Z,-0.59
2022-12-06T00:44:31.181Z,-0.61
2022-12-06T00:47:00.005Z,-0.59
2022-12-06T00:49:27.426Z,-0.59
2022-12-06T00:51:55.680Z,-0.55
2022-12-06T00:54:25.716Z,-0.55
2022-12-06T00:56:57.422Z,-0.54
2022-12-06T01:02:09.917Z,-0.52
2022-12-06T01:04:37.297Z,-0.48
2022-12-06T01:07:04.166Z,-0.49
2022-12-06T01:09:34.555Z,-0.44
2022-12-06T01:12:03.371Z,-0.41
2022-12-06T01:14:36.202Z,-0.45
2022-12-06T01:17:04.233Z,-0.45
2022-12-06T01:19:37.023Z,-0.42
2022-12-06T01:22:10.635Z,-0.39
2022-12-06T01:24:38.635Z,-0.41
2022-12-06T01:27:06.775Z,-0.42
2022-12-06T01:29:33.907Z,-0.41
2022-12-06T01:34:47.799Z,-0.43
2022-12-06T01:37:15.570Z,-0.43
2022-12-06T01:39:55.746Z,-0.40
2022-12-06T01:42:24.264Z,-0.41
2022-12-06T01:47:39.384Z,-0.47
2022-12-06T01:50:15.751Z,-0.44
2022-12-06T01:52:42.873Z,-0.46
2022-12-06T01:55:12.565Z,-0.45
2022-12-06T01:57:39.299Z,-0.42
2022-12-06T02:00:06.393Z,-0.44
2022-12-06T02:02:35.772Z,-0.46
2022-12-06T02:05:15.647Z,-0.49
2022-12-06T02:07:55.257Z,-0.44
2022-12-06T02:10:28.528Z,-0.46
2022-12-06T02:15:57.221Z,-0.42
2022-12-06T02:18:41.719Z,-0.42
2022-12-06T02:21:16.732Z,-0.42
2022-12-06T02:24:07.273Z,-0.45
2022-12-06T02:29:54.388Z,-0.44
2022-12-06T02:32:34.303Z,-0.41
2022-12-06T02:38:21.207Z,-0.44
2022-12-06T02:49:23.271Z,-0.38
2022-12-06T03:02:42.406Z,-0.36
2022-12-06T03:07:58.087Z,-0.36
2022-12-06T03:10:28.086Z,-0.35
2022-12-06T03:12:55.137Z,-0.33
2022-12-06T03:15:41.927Z,-0.31
2022-12-06T03:18:11.463Z,-0.31
2022-12-06T03:20:58.420Z,-0.34
2022-12-06T03:26:11.010Z,-0.33
2022-12-06T03:28:38.058Z,-0.33
2022-12-06T03:31:06.833Z,-0.28
2022-12-06T03:36:17.795Z,-0.32
2022-12-06T03:38:52.196Z,-0.22
2022-12-06T03:43:59.948Z,-0.34
2022-12-06T03:46:37.880Z,-0.37
2022-12-06T03:49:05.254Z,-0.35
2022-12-06T03:54:23.330Z,-0.30
2022-12-06T03:57:04.217Z,-0.31
2022-12-06T03:59:43.450Z,-0.29
2022-12-06T04:10:35.153Z,-0.24
2022-12-06T04:13:08.545Z,-0.27
2022-12-06T04:15:41.232Z,-0.25
2022-12-06T04:18:16.508Z,-0.25
2022-12-06T04:21:11.301Z,-0.24
2022-12-06T04:23:39.297Z,-0.24
2022-12-06T04:26:06.779Z,-0.23
2022-12-06T04:28:52.197Z,-0.19
2022-12-06T04:31:40.138Z,-0.19
2022-12-06T04:34:26.185Z,-0.21
2022-12-06T04:37:12.250Z,-0.22
2022-12-06T04:39:39.478Z,-0.22
2022-12-06T04:42:25.539Z,-0.22
2022-12-06T04:44:52.710Z,-0.22
2022-12-06T04:47:20.687Z,-0.23
2022-12-06T04:49:49.262Z,-0.22
2022-12-06T04:52:16.825Z,-0.21
2022-12-06T04:54:47.182Z,-0.19
2022-12-06T04:57:16.140Z,-0.22
2022-12-06T04:59:46.826Z,-0.22
2022-12-06T05:02:15.384Z,-0.23
2022-12-06T05:04:45.785Z,-0.18
2022-12-06T05:07:19.226Z,-0.18
2022-12-06T05:09:48.194Z,-0.19
2022-12-06T05:12:18.184Z,-0.19
2022-12-06T05:14:45.255Z,-0.19
2022-12-06T05:17:13.208Z,-0.21
2022-12-06T05:19:40.271Z,-0.19
2022-12-06T05:22:07.722Z,-0.20
2022-12-06T05:24:35.365Z,-0.18
2022-12-06T05:27:03.261Z,-0.18
2022-12-06T05:29:31.301Z,-0.15
2022-12-06T05:32:00.716Z,-0.17
2022-12-06T05:34:28.843Z,-0.16
2022-12-06T05:36:56.376Z,-0.17
2022-12-06T05:39:24.150Z,-0.16
2022-12-06T05:41:51.215Z,-0.18
2022-12-06T05:44:20.883Z,-0.19
2022-12-06T05:46:48.962Z,-0.21
2022-12-06T05:49:16.374Z,-0.21
2022-12-06T05:51:47.770Z,-0.21
2022-12-06T05:54:23.598Z,-0.21
2022-12-06T05:56:51.250Z,-0.16
2022-12-06T05:59:18.721Z,-0.21
2022-12-06T06:01:46.582Z,-0.22
2022-12-06T06:04:14.259Z,-0.21
2022-12-06T06:06:41.625Z,-0.19
2022-12-06T06:09:12.521Z,-0.18
2022-12-06T06:11:40.216Z,-0.16
2022-12-06T06:14:10.075Z,-0.12
2022-12-06T06:16:37.046Z,-0.14
2022-12-06T06:19:05.346Z,-0.14
2022-12-06T06:21:32.827Z,-0.12
2022-12-06T06:24:00.319Z,-0.13
2022-12-06T06:26:28.301Z,-0.14
2022-12-06T06:28:55.838Z,-0.10
2022-12-06T06:31:23.049Z,-0.13
2022-12-06T06:33:50.180Z,-0.10
2022-12-06T06:36:17.351Z,-0.08
2022-12-06T06:38:45.679Z,-0.10
2022-12-06T06:41:12.622Z,-0.10
2022-12-06T06:43:41.252Z,-0.06
2022-12-06T06:46:08.831Z,-0.06
2022-12-06T06:48:37.930Z,-0.05
2022-12-06T06:51:12.020Z,-0.03
2022-12-06T06:53:46.893Z,-0.02
2022-12-06T06:56:15.812Z,-0.03
2022-12-06T06:58:46.228Z,-0.01
2022-12-06T07:01:25.451Z,-0.03
2022-12-06T07:03:55.051Z,-0.04
2022-12-06T07:06:23.597Z,-0.02
2022-12-06T07:08:56.565Z,-0.02
2022-12-06T07:11:27.473Z,-0.02
2022-12-06T07:13:54.913Z,-0.02
2022-12-06T07:16:22.695Z,0.00
2022-12-06T07:18:50.314Z,0.03
2022-12-06T07:21:18.959Z,0.03
2022-12-06T07:23:48.919Z,0.02
2022-12-06T07:26:19.056Z,0.01
2022-12-06T07:28:49.463Z,0.00
2022-12-06T07:31:20.902Z,0.02
2022-12-06T07:33:48.379Z,0.08
2022-12-06T07:36:15.386Z,0.06
2022-12-06T07:38:42.913Z,0.11
2022-12-06T07:41:29.180Z,0.13
2022-12-06T07:44:15.119Z,0.11
2022-12-06T07:46:42.421Z,0.14
2022-12-06T07:49:09.370Z,0.15
2022-12-06T07:51:36.236Z,0.18
2022-12-06T07:54:05.527Z,0.23
2022-12-06T07:56:32.570Z,0.28
2022-12-06T07:58:59.527Z,0.32
2022-12-06T08:01:26.631Z,0.35
2022-12-06T08:03:56.093Z,0.37
2022-12-06T08:06:24.613Z,0.41
2022-12-06T08:08:57.993Z,0.44
2022-12-06T08:11:24.924Z,0.44
2022-12-06T08:13:55.164Z,0.44
2022-12-06T08:16:22.602Z,0.42
2022-12-06T08:18:50.401Z,0.40
2022-12-06T08:21:20.023Z,0.39
2022-12-06T08:23:47.194Z,0.41
2022-12-06T08:26:15.955Z,0.42
2022-12-06T08:28:45.171Z,0.45
2022-12-06T08:31:24.658Z,0.44
2022-12-06T08:33:54.702Z,0.47
2022-12-06T08:36:22.684Z,0.50
2022-12-06T08:38:52.813Z,0.53
2022-12-06T08:41:41.203Z,0.57
2022-12-06T08:44:24.572Z,0.58
2022-12-06T08:49:42.177Z,0.60
2022-12-06T08:52:10.810Z,0.64
2022-12-06T08:54:56.368Z,0.63
2022-12-06T09:00:10.183Z,0.68
2022-12-06T09:02:44.630Z,0.69
2022-12-06T09:05:12.639Z,0.73
2022-12-06T09:07:41.365Z,0.75
2022-12-06T09:15:49.144Z,0.86
2022-12-06T09:20:52.642Z,0.95
2022-12-06T09:23:32.262Z,0.98
2022-12-06T09:25:59.390Z,1.00
2022-12-06T09:28:28.318Z,1.03
2022-12-06T09:30:55.960Z,1.08
2022-12-06T09:33:22.906Z,1.07
2022-12-06T09:35:52.720Z,1.09
2022-12-06T09:38:24.820Z,1.14
2022-12-06T09:40:56.240Z,1.15
2022-12-06T09:43:27.224Z,1.14
2022-12-06T09:46:03.726Z,1.14
2022-12-06T09:51:39.872Z,1.23
2022-12-06T09:54:21.782Z,1.16
2022-12-06T09:56:52.152Z,1.21
2022-12-06T09:59:31.855Z,1.24
2022-12-06T10:02:22.317Z,1.30
2022-12-06T10:04:49.059Z,1.36
2022-12-06T10:07:29.188Z,1.37
2022-12-06T10:12:54.672Z,1.41
2022-12-06T10:15:37.600Z,1.42
2022-12-06T10:18:06.163Z,1.44
2022-12-06T10:20:45.924Z,1.42
2022-12-06T10:23:18.381Z,1.45
2022-12-06T10:26:04.448Z,1.46
2022-12-06T10:28:32.575Z,1.45
2022-12-06T10:31:01.102Z,1.48
2022-12-06T10:33:35.966Z,1.54
2022-12-06T10:36:04.291Z,1.58
2022-12-06T10:38:45.813Z,1.62
2022-12-06T10:41:30.990Z,1.73
2022-12-06T10:44:05.214Z,1.85
2022-12-06T10:46:55.675Z,1.94
2022-12-06T10:49:28.146Z,1.99
2022-12-06T10:52:01.372Z,2.03
2022-12-06T10:54:46.813Z,2.08
2022-12-06T10:57:21.684Z,2.02
2022-12-06T10:59:54.693Z,2.09
2022-12-06T11:02:40.855Z,2.15
2022-12-06T11:05:10.970Z,2.15
2022-12-06T11:07:38.344Z,2.15
2022-12-06T11:10:14.070Z,2.16
2022-12-06T11:12:40.857Z,2.12
2022-12-06T11:15:07.522Z,2.09
2022-12-06T11:17:34.932Z,2.06
2022-12-06T11:20:12.142Z,2.01
2022-12-06T11:22:41.950Z,2.02
2022-12-06T11:25:28.999Z,1.99
2022-12-06T11:27:56.934Z,1.95
2022-12-06T11:30:23.885Z,1.90
2022-12-06T11:32:50.965Z,1.93
2022-12-06T11:35:19.990Z,1.92
2022-12-06T11:37:46.689Z,1.90
2022-12-06T11:40:24.007Z,1.82
2022-12-06T11:42:50.521Z,1.83
2022-12-06T11:45:25.255Z,1.87
2022-12-06T11:47:59.412Z,1.91
2022-12-06T11:50:26.268Z,1.93
2022-12-06T11:52:57.307Z,1.91
2022-12-06T11:55:25.546Z,1.88
2022-12-06T11:57:53.884Z,1.80
2022-12-06T12:00:21.710Z,1.74
2022-12-06T12:02:49.523Z,1.65
2022-12-06T12:05:24.403Z,1.67
2022-12-06T12:08:01.402Z,1.66
2022-12-06T12:10:41.315Z,1.67
2022-12-06T12:13:29.526Z,1.66
2022-12-06T12:15:56.519Z,1.61
2022-12-06T12:18:24.725Z,1.57
2022-12-06T12:20:51.415Z,1.56
2022-12-06T12:23:19.011Z,1.59
2022-12-06T12:25:58.290Z,1.60
2022-12-06T12:28:25.938Z,1.58
2022-12-06T12:30:53.042Z,1.54
2022-12-06T12:33:20.238Z,1.51
2022-12-06T12:35:48.256Z,1.48
2022-12-06T12:38:23.244Z,1.49
2022-12-06T12:40:59.909Z,1.42
2022-12-06T12:43:27.640Z,1.42
2022-12-06T12:46:07.985Z,1.41
2022-12-06T12:48:34.734Z,1.42
2022-12-06T12:51:02.516Z,1.44
2022-12-06T12:53:30.447Z,1.44
2022-12-06T12:56:12.464Z,1.44
2022-12-06T12:58:39.116Z,1.48
2022-12-06T13:01:24.023Z,1.48
2022-12-06T13:03:54.938Z,1.49
2022-12-06T13:06:26.776Z,1.45
2022-12-06T13:08:53.436Z,1.44
2022-12-06T13:11:20.047Z,1.46
2022-12-06T13:13:48.001Z,1.40
2022-12-06T13:16:15.732Z,1.39
2022-12-06T13:18:43.234Z,1.38
2022-12-06T13:21:22.058Z,1.40
2022-12-06T13:23:49.622Z,1.42
2022-12-06T13:26:22.924Z,1.45
2022-12-06T13:28:51.107Z,1.48
2022-12-06T13:31:19.184Z,1.55
2022-12-06T13:33:47.893Z,1.55
2022-12-06T13:36:14.567Z,1.57
2022-12-06T13:38:41.709Z,1.57
2022-12-06T13:41:15.161Z,1.59
2022-12-06T13:43:50.830Z,1.61
2022-12-06T13:46:23.069Z,1.56
2022-12-06T13:48:50.062Z,1.53
2022-12-06T13:51:34.981Z,1.52
2022-12-06T13:54:06.971Z,1.49
2022-12-06T13:56:33.578Z,1.48
2022-12-06T13:59:04.407Z,1.50
2022-12-06T14:01:39.581Z,1.55
2022-12-06T14:06:52.439Z,1.60
2022-12-06T14:09:18.987Z,1.64
2022-12-06T14:11:45.577Z,1.59
2022-12-06T14:14:18.677Z,1.60
2022-12-06T14:16:46.413Z,1.57
2022-12-06T14:19:22.204Z,1.55
2022-12-06T14:21:55.136Z,1.48
2022-12-06T14:24:38.439Z,1.46
2022-12-06T14:27:12.656Z,1.38
2022-12-06T14:29:39.186Z,1.35
2022-12-06T14:32:05.856Z,1.35
2022-12-06T14:34:33.100Z,1.33
2022-12-06T14:37:00.232Z,1.32
2022-12-06T14:39:28.785Z,1.24
2022-12-06T14:42:19.762Z,1.21
2022-12-06T14:44:47.147Z,1.19
2022-12-06T14:47:14.703Z,1.20
2022-12-06T14:50:00.080Z,1.21
2022-12-06T14:52:27.708Z,1.22
2022-12-06T14:55:12.578Z,1.19
2022-12-06T14:57:44.513Z,1.18
2022-12-06T15:00:18.448Z,1.16
2022-12-06T15:03:03.518Z,1.15
2022-12-06T15:05:31.361Z,1.14
2022-12-06T15:07:57.950Z,1.12
2022-12-06T15:10:25.767Z,1.09
2022-12-06T15:12:58.266Z,1.08
2022-12-06T15:15:34.770Z,1.08
2022-12-06T15:18:22.057Z,1.04
2022-12-06T15:20:50.002Z,0.99
2022-12-06T15:23:19.590Z,0.95
2022-12-06T15:25:46.091Z,0.91
2022-12-06T15:28:16.901Z,0.85
2022-12-06T15:30:46.144Z,0.81
2022-12-06T15:33:15.229Z,0.77
2022-12-06T15:35:42.262Z,0.75
2022-12-06T15:38:09.257Z,0.72
2022-12-06T15:40:36.682Z,0.70
2022-12-06T15:43:03.406Z,0.66
2022-12-06T15:45:32.162Z,0.64
2022-12-06T15:47:58.719Z,0.60
2022-12-06T15:50:25.199Z,0.55
2022-12-06T15:52:51.758Z,0.48
2022-12-06T15:55:18.646Z,0.45
2022-12-06T15:57:45.324Z,0.44
2022-12-06T16:00:12.014Z,0.44
2022-12-06T16:02:38.767Z,0.40
2022-12-06T16:05:05.903Z,0.37
2022-12-06T16:07:32.623Z,0.30
2022-12-06T16:09:59.385Z,0.24
2022-12-06T16:12:46.303Z,0.18
2022-12-06T16:15:12.819Z,0.11
2022-12-06T16:17:39.405Z,0.05
2022-12-06T16:20:24.512Z,-0.01
2022-12-06T16:23:09.702Z,-0.05
2022-12-06T16:25:36.249Z,0.02
2022-12-06T16:28:02.782Z,-0.02
2022-12-06T16:30:32.864Z,-0.05
2022-12-06T16:33:05.821Z,-0.04
2022-12-06T16:35:34.043Z,-0.03
2022-12-06T16:38:00.601Z,0.03
2022-12-06T16:40:28.297Z,0.06
2022-12-06T16:42:54.823Z,0.07
2022-12-06T16:45:21.360Z,0.10
2022-12-06T16:47:48.815Z,0.19
2022-12-06T16:50:24.357Z,0.16
2022-12-06T16:52:51.179Z,0.16
2022-12-06T16:55:17.736Z,0.15
2022-12-06T16:57:44.475Z,0.17
2022-12-06T17:00:11.490Z,0.15
2022-12-06T17:02:38.033Z,0.19
2022-12-06T17:05:06.897Z,0.22
2022-12-06T17:07:39.047Z,0.24
2022-12-06T17:10:06.058Z,0.26
2022-12-06T17:12:32.720Z,0.28
2022-12-06T17:14:59.764Z,0.29
2022-12-06T17:17:29.325Z,0.29
2022-12-06T17:19:56.453Z,0.29
2022-12-06T17:22:23.077Z,0.32
2022-12-06T17:24:49.658Z,0.32
2022-12-06T17:27:16.366Z,0.32
2022-12-06T17:29:43.844Z,0.33
2022-12-06T17:32:10.537Z,0.30
2022-12-06T17:34:37.170Z,0.28
2022-12-06T17:37:03.989Z,0.27
2022-12-06T17:39:30.569Z,0.28
2022-12-06T17:42:15.748Z,0.25
2022-12-06T17:44:42.290Z,0.23
2022-12-06T17:47:08.822Z,0.22
2022-12-06T17:49:36.290Z,0.20
2022-12-06T17:52:02.907Z,0.20
2022-12-06T17:54:29.458Z,0.16
2022-12-06T17:56:56.206Z,0.11
2022-12-06T17:59:23.641Z,0.03
2022-12-06T18:02:14.166Z,0.03
2022-12-06T18:04:37.141Z,0.03
2022-12-06T18:07:03.646Z,-0.01
2022-12-06T18:09:30.170Z,-0.05
2022-12-06T18:11:56.876Z,-0.05
2022-12-06T18:14:23.420Z,-0.09
2022-12-06T18:16:50.018Z,-0.08
2022-12-06T18:19:17.593Z,-0.07
2022-12-06T18:21:44.138Z,-0.08
2022-12-06T18:24:32.026Z,-0.07
2022-12-06T18:26:58.511Z,-0.05
2022-12-06T18:29:25.045Z,-0.04
2022-12-06T18:31:52.125Z,0.00
2022-12-06T18:34:18.952Z,0.00
2022-12-06T18:36:45.471Z,0.01
2022-12-06T18:39:15.406Z,0.02
2022-12-06T18:41:43.175Z,0.04
2022-12-06T18:44:09.734Z,0.05
2022-12-06T18:46:38.027Z,0.10
2022-12-06T18:49:04.664Z,0.13
2022-12-06T18:51:33.132Z,0.18
2022-12-06T18:54:00.878Z,0.24
2022-12-06T18:56:27.579Z,0.30
2022-12-06T18:58:54.126Z,0.36
2022-12-06T19:01:25.062Z,0.40
2022-12-06T19:03:51.858Z,0.45
2022-12-06T19:06:19.555Z,0.49
2022-12-06T19:08:46.312Z,0.50
2022-12-06T19:11:17.764Z,0.52
2022-12-06T19:13:49.472Z,0.55
2022-12-06T19:16:16.479Z,0.62
2022-12-06T19:18:43.136Z,0.68
2022-12-06T19:21:09.727Z,0.66
2022-12-06T19:23:36.317Z,0.64
2022-12-06T19:26:02.998Z,0.68
2022-12-06T19:28:29.848Z,0.69
2022-12-06T19:30:59.892Z,0.73
2022-12-06T19:33:26.500Z,0.72
2022-12-06T19:35:59.629Z,0.74
2022-12-06T19:38:26.450Z,0.75
2022-12-06T19:40:53.856Z,0.82
2022-12-06T19:43:44.831Z,0.80
2022-12-06T19:46:12.759Z,0.83
2022-12-06T19:48:39.452Z,0.83
2022-12-06T19:51:06.235Z,0.83
2022-12-06T19:53:33.707Z,0.85
2022-12-06T19:56:00.236Z,0.86
2022-12-06T19:58:27.073Z,0.84
2022-12-06T20:00:54.005Z,0.85
2022-12-06T20:03:20.831Z,0.88
2022-12-06T20:05:47.297Z,0.91
2022-12-06T20:08:13.894Z,0.94
2022-12-06T20:10:41.695Z,0.94
2022-12-06T20:13:08.320Z,0.93
2022-12-06T20:15:34.842Z,0.93
2022-12-06T20:18:01.372Z,0.91
2022-12-06T20:20:29.551Z,0.90
2022-12-06T20:22:56.101Z,0.89
2022-12-06T20:25:22.622Z,0.91
2022-12-06T20:27:52.154Z,0.94
2022-12-06T20:30:19.363Z,0.96
2022-12-06T20:32:45.858Z,0.95
2022-12-06T20:35:12.427Z,0.97
2022-12-06T20:37:38.923Z,0.96
2022-12-06T20:40:05.743Z,0.97
2022-12-06T20:42:32.721Z,0.97
2022-12-06T20:44:59.221Z,1.00
2022-12-06T20:47:25.782Z,1.01
2022-12-06T20:49:52.609Z,1.00
2022-12-06T20:52:19.059Z,1.00
2022-12-06T20:54:45.536Z,0.99
2022-12-06T20:57:12.705Z,1.03
2022-12-06T20:59:39.267Z,1.03
2022-12-06T21:02:05.955Z,1.04
2022-12-06T21:04:32.516Z,1.09
2022-12-06T21:06:59.045Z,1.06
2022-12-06T21:09:25.550Z,1.03
2022-12-06T21:11:52.141Z,1.02
2022-12-06T21:14:18.761Z,1.00
2022-12-06T21:16:45.301Z,1.04
2022-12-06T21:19:13.367Z,1.01
2022-12-06T21:21:41.007Z,1.03
2022-12-06T21:24:08.415Z,1.04
2022-12-06T21:26:35.117Z,1.01
2022-12-06T21:29:01.923Z,0.99
2022-12-06T21:31:29.235Z,1.00
2022-12-06T21:33:56.254Z,1.08
2022-12-06T21:36:22.798Z,1.04
2022-12-06T21:38:49.286Z,1.04
2022-12-06T21:41:15.753Z,1.04
2022-12-06T21:43:42.229Z,1.03
2022-12-06T21:46:10.641Z,1.01
2022-12-06T21:48:37.215Z,1.03
2022-12-06T21:51:07.666Z,1.02
2022-12-06T21:53:34.371Z,1.02
2022-12-06T21:56:04.980Z,1.03
2022-12-06T21:58:31.456Z,1.01
2022-12-06T22:01:02.956Z,1.03
2022-12-06T22:03:29.511Z,1.03
2022-12-06T22:05:56.000Z,1.04
2022-12-06T22:08:22.558Z,1.03
2022-12-06T22:10:52.567Z,1.01
2022-12-06T22:13:19.126Z,1.05
2022-12-06T22:15:46.043Z,1.04
2022-12-06T22:18:12.594Z,1.04
2022-12-06T22:20:39.071Z,1.08
2022-12-06T22:23:05.574Z,1.07
2022-12-06T22:25:32.202Z,1.09
2022-12-06T22:27:58.635Z,1.09
2022-12-06T22:30:25.326Z,1.11
2022-12-06T22:32:52.055Z,1.12
2022-12-06T22:35:18.583Z,1.13
2022-12-06T22:37:45.095Z,1.09
2022-12-06T22:40:11.779Z,1.09
2022-12-06T22:42:38.362Z,1.08
2022-12-06T22:45:05.160Z,1.07
2022-12-06T22:47:31.658Z,1.08
2022-12-06T22:49:58.374Z,1.08
2022-12-06T22:52:25.027Z,1.07
2022-12-06T22:54:51.529Z,1.09
2022-12-06T22:57:17.967Z,1.11
2022-12-06T22:59:44.619Z,1.07
2022-12-06T23:02:11.175Z,1.12
2022-12-06T23:04:37.673Z,1.13
2022-12-06T23:07:04.111Z,1.12
2022-12-06T23:09:30.642Z,1.11
2022-12-06T23:11:57.127Z,1.11
2022-12-06T23:14:23.596Z,1.13
2022-12-06T23:16:50.149Z,1.15
2022-12-06T23:19:16.715Z,1.16
2022-12-06T23:21:43.226Z,1.19
2022-12-06T23:24:10.417Z,1.19
2022-12-06T23:26:40.849Z,1.22
2022-12-06T23:29:07.434Z,1.18
2022-12-06T23:31:35.030Z,1.18
2022-12-06T23:34:03.407Z,1.20
2022-12-06T23:36:32.221Z,1.24
2022-12-06T23:38:58.703Z,1.23
2022-12-06T23:41:26.542Z,1.21
2022-12-06T23:43:53.206Z,1.19
2022-12-06T23:46:22.427Z,1.20
2022-12-06T23:48:49.735Z,1.21
2022-12-06T23:51:17.111Z,1.21
2022-12-06T23:53:44.320Z,1.24
2022-12-06T23:56:11.999Z,1.23
2022-12-06T23:58:38.726Z,1.25
